TimeEST,TemperatureF,Dew PointF,Humidity,Sea Level PressureIn,VisibilityMPH,Wind Direction,Wind SpeedMPH,Gust SpeedMPH,PrecipitationIn,Events,Conditions,WindDirDegrees,DateUTC
12:52 AM,37.9,34.0,86,30.20,10.0,Calm,Calm,-,N/A,,Clear,0,2012-11-22 05:52:00
1:52 AM,41.0,35.1,79,30.20,10.0,NW,5.8,-,N/A,,Clear,320,2012-11-22 06:52:00
2:52 AM,41.0,36.0,82,30.20,10.0,NW,6.9,-,N/A,,Clear,320,2012-11-22 07:52:00
3:52 AM,39.9,36.0,86,30.20,10.0,NW,5.8,-,N/A,,Clear,310,2012-11-22 08:52:00
4:52 AM,42.1,37.9,85,30.21,10.0,NW,9.2,-,N/A,,Clear,320,2012-11-22 09:52:00
5:52 AM,42.1,37.0,82,30.21,10.0,NW,10.4,-,N/A,,Clear,310,2012-11-22 10:52:00
6:52 AM,41.0,36.0,82,30.22,10.0,NNW,8.1,-,N/A,,Clear,330,2012-11-22 11:52:00
7:52 AM,46.9,36.0,66,30.24,10.0,North,13.8,-,N/A,,Clear,360,2012-11-22 12:52:00
8:52 AM,48.9,37.0,64,30.25,10.0,North,13.8,-,N/A,,Clear,350,2012-11-22 13:52:00
9:52 AM,50.0,37.9,63,30.26,10.0,North,10.4,-,N/A,,Clear,360,2012-11-22 14:52:00
10:52 AM,52.0,37.9,59,30.25,10.0,NNW,11.5,-,N/A,,Clear,340,2012-11-22 15:52:00
11:52 AM,53.1,37.0,55,30.23,10.0,North,11.5,-,N/A,,Clear,350,2012-11-22 16:52:00
12:52 PM,54.0,37.0,53,30.21,10.0,North,12.7,-,N/A,,Clear,360,2012-11-22 17:52:00
1:52 PM,55.0,37.0,51,30.19,10.0,NNW,8.1,-,N/A,,Clear,340,2012-11-22 18:52:00
2:52 PM,55.0,37.0,51,30.18,10.0,North,8.1,-,N/A,,Clear,350,2012-11-22 19:52:00
3:52 PM,54.0,37.0,53,30.19,10.0,NNW,6.9,-,N/A,,Clear,330,2012-11-22 20:52:00
4:52 PM,50.0,36.0,59,30.19,10.0,NNW,5.8,-,N/A,,Clear,330,2012-11-22 21:52:00
5:52 PM,44.1,36.0,73,30.19,10.0,Calm,Calm,-,N/A,,Clear,0,2012-11-22 22:52:00
6:52 PM,41.0,35.1,79,30.19,10.0,Calm,Calm,-,N/A,,Clear,0,2012-11-22 23:52:00
7:52 PM,39.9,36.0,86,30.19,10.0,West,3.5,-,N/A,,Clear,260,2012-11-23 00:52:00
8:52 PM,37.9,34.0,86,30.18,10.0,Calm,Calm,-,N/A,,Clear,0,2012-11-23 01:52:00
9:52 PM,37.0,33.1,86,30.17,10.0,SW,3.5,-,N/A,,Clear,220,2012-11-23 02:52:00
10:52 PM,36.0,32.0,86,30.16,10.0,Calm,Calm,-,N/A,,Clear,0,2012-11-23 03:52:00
11:52 PM,36.0,32.0,86,30.15,10.0,Calm,Calm,-,N/A,,Clear,0,2012-11-23 04:52:00